createdAt,value
2017-08-14T00:00:19.402Z,0
2017-08-14T00:01:18.513Z,0
2017-08-14T00:02:18.525Z,0
2017-08-14T00:03:18.214Z,0
2017-08-14T00:04:18.527Z,0
2017-08-14T00:05:18.396Z,0
2017-08-14T00:06:18.222Z,0
2017-08-14T00:07:18.531Z,0
2017-08-14T00:08:18.549Z,0
2017-08-14T00:09:18.545Z,0
2017-08-14T00:10:18.421Z,0
2017-08-14T00:11:18.549Z,0
2017-08-14T00:12:18.553Z,0
2017-08-14T00:13:18.241Z,0
2017-08-14T00:14:18.560Z,0
2017-08-14T00:15:18.531Z,0
2017-08-14T00:16:19.048Z,0
2017-08-14T00:17:18.241Z,0
2017-08-14T00:18:18.574Z,0
2017-08-14T00:19:18.250Z,0
2017-08-14T00:20:18.115Z,0
2017-08-14T00:21:18.580Z,0
2017-08-14T00:22:19.021Z,0
2017-08-14T00:23:18.553Z,0
2017-08-14T00:24:18.582Z,0
2017-08-14T00:25:18.566Z,0
2017-08-14T00:26:18.259Z,0
2017-08-14T00:27:18.579Z,0
2017-08-14T00:28:18.265Z,0
2017-08-14T00:29:21.841Z,0
2017-08-14T00:30:18.437Z,0
2017-08-14T00:31:18.285Z,0
2017-08-14T00:32:18.583Z,0
2017-08-14T00:33:18.583Z,0
2017-08-14T00:34:18.582Z,0
2017-08-14T00:35:18.867Z,0
2017-08-14T00:36:18.283Z,0
2017-08-14T00:37:18.602Z,0
2017-08-14T00:38:18.585Z,0
2017-08-14T00:39:18.581Z,0
2017-08-14T00:40:18.759Z,0
2017-08-14T00:41:18.291Z,0
2017-08-14T00:42:18.592Z,0
2017-08-14T00:43:18.595Z,0
2017-08-14T00:44:18.001Z,0
2017-08-14T00:45:19.366Z,0
2017-08-14T00:46:18.304Z,0
2017-08-14T00:47:18.311Z,0
2017-08-14T00:48:18.605Z,0
2017-08-14T00:49:18.606Z,0
2017-08-14T00:50:18.575Z,0
2017-08-14T00:51:18.614Z,0
2017-08-14T00:52:18.323Z,0
2017-08-14T00:53:18.315Z,0
2017-08-14T00:54:18.619Z,0
2017-08-14T00:55:18.807Z,0
2017-08-14T00:56:18.631Z,0
2017-08-14T00:57:18.315Z,0
2017-08-14T00:58:18.324Z,0
2017-08-14T00:59:19.689Z,0
2017-08-14T01:00:19.219Z,0
2017-08-14T01:01:18.329Z,0
2017-08-14T01:02:18.632Z,0
2017-08-14T01:03:18.638Z,0
2017-08-14T01:04:18.347Z,0
2017-08-14T01:05:18.875Z,0
2017-08-14T01:06:18.693Z,0
2017-08-14T01:07:18.370Z,0
2017-08-14T01:08:18.675Z,0
2017-08-14T01:09:18.676Z,0
2017-08-14T01:10:18.832Z,0
2017-08-14T01:11:18.374Z,0
2017-08-14T01:12:18.696Z,0
2017-08-14T01:13:18.356Z,0
2017-08-14T01:14:18.679Z,0
2017-08-14T01:15:18.843Z,0
2017-08-14T01:16:18.377Z,0
2017-08-14T01:17:18.705Z,0
2017-08-14T01:18:18.684Z,0
2017-08-14T01:19:18.696Z,0
2017-08-14T01:20:19.443Z,0
2017-08-14T01:21:18.683Z,0
2017-08-14T01:22:18.697Z,0
2017-08-14T01:23:18.699Z,0
2017-08-14T01:24:18.697Z,0
2017-08-14T01:25:19.114Z,0
2017-08-14T01:26:18.702Z,0
2017-08-14T01:27:18.703Z,0
2017-08-14T01:28:18.700Z,0
2017-08-14T01:29:19.754Z,0
2017-08-14T01:30:19.103Z,0
2017-08-14T01:31:18.705Z,0
2017-08-14T01:32:18.702Z,0
2017-08-14T01:33:18.716Z,0
2017-08-14T01:34:18.394Z,0
2017-08-14T01:35:18.991Z,0
2017-08-14T01:36:18.726Z,0
2017-08-14T01:37:18.713Z,0
2017-08-14T01:38:18.730Z,0
2017-08-14T01:39:18.734Z,0
2017-08-14T01:40:19.032Z,0
2017-08-14T01:41:18.732Z,0
2017-08-14T01:42:18.766Z,0
2017-08-14T01:43:18.754Z,0
2017-08-14T01:44:18.748Z,0
2017-08-14T01:45:18.440Z,0
2017-08-14T01:46:18.753Z,0
2017-08-14T01:47:18.441Z,0
2017-08-14T01:48:18.747Z,0
2017-08-14T01:49:18.439Z,0
2017-08-14T01:50:19.078Z,0
2017-08-14T01:51:18.763Z,0
2017-08-14T01:52:18.455Z,0
2017-08-14T01:53:18.759Z,0
2017-08-14T01:54:18.758Z,0
2017-08-14T01:55:18.737Z,0
2017-08-14T01:56:18.799Z,0
2017-08-14T01:57:18.758Z,0
2017-08-14T01:58:18.761Z,0
2017-08-14T01:59:18.803Z,0
2017-08-14T02:00:20.903Z,0
2017-08-14T02:01:18.773Z,0
2017-08-14T02:02:18.770Z,0
2017-08-14T02:03:18.762Z,0
2017-08-14T02:04:18.781Z,0
2017-08-14T02:05:19.554Z,0
2017-08-14T02:06:18.775Z,0
2017-08-14T02:07:18.770Z,0
2017-08-14T02:08:18.766Z,0
2017-08-14T02:09:18.491Z,0
2017-08-14T02:10:18.963Z,0
2017-08-14T02:11:18.777Z,0
2017-08-14T02:12:18.495Z,0
2017-08-14T02:13:18.780Z,0
2017-08-14T02:14:18.783Z,0
2017-08-14T02:15:18.873Z,0
2017-08-14T02:16:18.802Z,0
2017-08-14T02:17:18.474Z,0
2017-08-14T02:18:18.796Z,0
2017-08-14T02:19:18.797Z,0
2017-08-14T02:20:18.679Z,0
2017-08-14T02:21:18.792Z,0
2017-08-14T02:22:18.501Z,0
2017-08-14T02:23:18.805Z,0
2017-08-14T02:24:18.824Z,0
2017-08-14T02:25:19.121Z,0
2017-08-14T02:26:18.545Z,0
2017-08-14T02:27:18.508Z,0
2017-08-14T02:28:18.503Z,0
2017-08-14T02:29:18.807Z,0
2017-08-14T02:30:22.442Z,0
2017-08-14T02:31:18.222Z,0
2017-08-14T02:32:18.828Z,0
2017-08-14T02:33:18.855Z,0
2017-08-14T02:34:18.521Z,0
2017-08-14T02:35:18.833Z,0
2017-08-14T02:36:18.840Z,0
2017-08-14T02:37:18.852Z,0
2017-08-14T02:38:18.857Z,0
2017-08-14T02:39:18.869Z,0
2017-08-14T02:40:18.746Z,0
2017-08-14T02:41:18.533Z,0
2017-08-14T02:42:18.841Z,0
2017-08-14T02:43:18.845Z,0
2017-08-14T02:44:18.850Z,0
2017-08-14T02:45:19.612Z,0
2017-08-14T02:46:18.848Z,0
2017-08-14T02:47:18.563Z,0
2017-08-14T02:48:18.857Z,0
2017-08-14T02:49:18.850Z,0
2017-08-14T02:50:18.705Z,0
2017-08-14T02:51:18.867Z,0
2017-08-14T02:52:18.853Z,0
2017-08-14T02:53:18.860Z,0
2017-08-14T02:54:18.877Z,0
2017-08-14T02:55:19.132Z,0
2017-08-14T02:56:18.868Z,0
2017-08-14T02:57:18.868Z,0
2017-08-14T02:58:18.888Z,0
2017-08-14T02:59:18.862Z,0
2017-08-14T03:00:19.621Z,0
2017-08-14T03:01:18.879Z,0
2017-08-14T03:02:18.866Z,0
2017-08-14T03:03:18.870Z,0
2017-08-14T03:04:18.898Z,0
2017-08-14T03:05:19.058Z,0
2017-08-14T03:06:18.891Z,0
2017-08-14T03:07:18.894Z,0
2017-08-14T03:08:18.872Z,0
2017-08-14T03:09:18.883Z,0
2017-08-14T03:10:19.091Z,0
2017-08-14T03:11:18.884Z,0
2017-08-14T03:12:18.896Z,0
2017-08-14T03:13:18.579Z,0
2017-08-14T03:14:18.911Z,0
2017-08-14T03:15:19.191Z,0
2017-08-14T03:16:20.548Z,0
2017-08-14T03:17:18.911Z,0
2017-08-14T03:18:18.924Z,0
2017-08-14T03:19:18.909Z,0
2017-08-14T03:20:19.203Z,0
2017-08-14T03:21:18.941Z,0
2017-08-14T03:22:18.907Z,0
2017-08-14T03:23:18.951Z,0
2017-08-14T03:24:18.937Z,0
2017-08-14T03:25:19.744Z,0
2017-08-14T03:26:18.621Z,0
2017-08-14T03:27:18.665Z,0
2017-08-14T03:28:18.648Z,0
2017-08-14T03:29:18.646Z,0
2017-08-14T03:30:18.950Z,0
2017-08-14T03:31:21.529Z,0
2017-08-14T03:32:18.932Z,0
2017-08-14T03:33:18.607Z,0
2017-08-14T03:34:18.942Z,0
2017-08-14T03:35:18.841Z,0
2017-08-14T03:36:18.945Z,0
2017-08-14T03:37:18.340Z,0
2017-08-14T03:38:18.952Z,0
2017-08-14T03:39:18.974Z,0
2017-08-14T03:40:19.384Z,4
2017-08-14T03:41:18.950Z,4
2017-08-14T03:42:18.971Z,0
2017-08-14T03:43:18.967Z,0
2017-08-14T03:44:18.948Z,4
2017-08-14T03:45:19.266Z,4
2017-08-14T03:46:18.966Z,4
2017-08-14T03:47:18.654Z,8
2017-08-14T03:48:18.966Z,8
2017-08-14T03:49:18.675Z,8
2017-08-14T03:50:19.522Z,8
2017-08-14T03:51:18.654Z,8
2017-08-14T03:52:18.972Z,12
2017-08-14T03:53:18.969Z,12
2017-08-14T03:54:18.968Z,20
2017-08-14T03:55:19.476Z,16
2017-08-14T03:56:18.686Z,20
2017-08-14T03:57:18.682Z,24
2017-08-14T03:58:19.029Z,32
2017-08-14T03:59:18.701Z,36
2017-08-14T04:00:19.658Z,44
2017-08-14T04:01:21.322Z,48
2017-08-14T04:02:18.369Z,56
2017-08-14T04:03:18.719Z,68
2017-08-14T04:04:18.990Z,72
2017-08-14T04:05:18.887Z,84
2017-08-14T04:06:18.676Z,96
2017-08-14T04:07:18.987Z,108
2017-08-14T04:08:19.014Z,120
2017-08-14T04:09:18.685Z,136
2017-08-14T04:10:18.550Z,148
2017-08-14T04:11:18.700Z,164
2017-08-14T04:12:19.001Z,184
2017-08-14T04:13:18.709Z,200
2017-08-14T04:14:18.706Z,220
2017-08-14T04:15:19.308Z,244
2017-08-14T04:16:19.008Z,260
2017-08-14T04:17:19.022Z,288
2017-08-14T04:18:18.998Z,312
2017-08-14T04:19:19.019Z,336
2017-08-14T04:20:19.423Z,360
2017-08-14T04:21:19.017Z,388
2017-08-14T04:22:18.403Z,420
2017-08-14T04:23:18.726Z,452
2017-08-14T04:24:19.014Z,484
2017-08-14T04:25:19.337Z,516
2017-08-14T04:26:18.725Z,548
2017-08-14T04:27:19.024Z,588
2017-08-14T04:28:19.010Z,624
2017-08-14T04:29:19.029Z,656
2017-08-14T04:30:19.353Z,692
2017-08-14T04:31:19.028Z,732
2017-08-14T04:32:18.729Z,776
2017-08-14T04:33:18.732Z,820
2017-08-14T04:34:19.048Z,860
2017-08-14T04:35:19.482Z,904
2017-08-14T04:36:18.733Z,948
2017-08-14T04:37:19.046Z,996
2017-08-14T04:38:18.732Z,1048
2017-08-14T04:39:19.033Z,1104
2017-08-14T04:40:19.011Z,1164
2017-08-14T04:41:18.429Z,1216
2017-08-14T04:42:19.055Z,1344
2017-08-14T04:43:19.055Z,1520
2017-08-14T04:44:18.758Z,1760
2017-08-14T04:45:19.019Z,1948
2017-08-14T04:46:18.738Z,1960
2017-08-14T04:47:19.237Z,1980
2017-08-14T04:48:19.062Z,1896
2017-08-14T04:49:18.754Z,2040
2017-08-14T04:50:19.801Z,2616
2017-08-14T04:51:18.755Z,2736
2017-08-14T04:52:19.063Z,2844
2017-08-14T04:53:19.060Z,3344
2017-08-14T04:54:18.763Z,3408
2017-08-14T04:55:19.168Z,3516
2017-08-14T04:56:19.077Z,3656
2017-08-14T04:57:19.067Z,3784
2017-08-14T04:58:18.770Z,4100
2017-08-14T04:59:18.794Z,4256
2017-08-14T05:00:19.013Z,4212
2017-08-14T05:01:18.793Z,4044
2017-08-14T05:02:19.296Z,4608
2017-08-14T05:03:19.096Z,4872
2017-08-14T05:04:19.106Z,5228
2017-08-14T05:05:19.861Z,5412
2017-08-14T05:06:19.097Z,5568
2017-08-14T05:07:19.092Z,5652
2017-08-14T05:08:19.107Z,5748
2017-08-14T05:09:19.111Z,5852
2017-08-14T05:10:19.402Z,5956
2017-08-14T05:11:18.818Z,6112
2017-08-14T05:12:19.111Z,6284
2017-08-14T05:13:19.126Z,6404
2017-08-14T05:14:19.126Z,5200
2017-08-14T05:15:19.405Z,6724
2017-08-14T05:16:18.843Z,6812
2017-08-14T05:17:19.138Z,7040
2017-08-14T05:18:19.147Z,7192
2017-08-14T05:19:18.865Z,7340
2017-08-14T05:20:18.786Z,7492
2017-08-14T05:21:18.869Z,7648
2017-08-14T05:22:19.174Z,7756
2017-08-14T05:23:18.874Z,7840
2017-08-14T05:24:18.891Z,7880
2017-08-14T05:25:19.450Z,7996
2017-08-14T05:26:18.905Z,8004
2017-08-14T05:27:18.906Z,8044
2017-08-14T05:28:19.197Z,7976
2017-08-14T05:29:19.225Z,7896
2017-08-14T05:30:19.189Z,7848
2017-08-14T05:31:19.237Z,7668
2017-08-14T05:32:21.822Z,7620
2017-08-14T05:33:19.236Z,7516
2017-08-14T05:34:18.958Z,7416
2017-08-14T05:35:19.606Z,7156
2017-08-14T05:36:19.247Z,6368
2017-08-14T05:37:19.254Z,8920
2017-08-14T05:38:19.255Z,6528
2017-08-14T05:39:19.261Z,6256
2017-08-14T05:40:19.609Z,5788
2017-08-14T05:41:18.998Z,5348
2017-08-14T05:42:19.302Z,5048
2017-08-14T05:43:19.295Z,4872
2017-08-14T05:44:19.000Z,4788
2017-08-14T05:45:19.234Z,4744
2017-08-14T05:46:18.698Z,4716
2017-08-14T05:47:19.038Z,4720
2017-08-14T05:48:19.303Z,11400
2017-08-14T05:49:19.310Z,4956
2017-08-14T05:50:19.618Z,4752
2017-08-14T05:51:19.045Z,4736
2017-08-14T05:52:19.337Z,4696
2017-08-14T05:53:19.338Z,4704
2017-08-14T05:54:19.048Z,4748
2017-08-14T05:55:19.350Z,4800
2017-08-14T05:56:19.347Z,4888
2017-08-14T05:57:19.370Z,5132
2017-08-14T05:58:19.086Z,4756
2017-08-14T05:59:19.357Z,11628
2017-08-14T06:00:19.677Z,6168
2017-08-14T06:01:19.369Z,6808
2017-08-14T06:02:19.370Z,7268
2017-08-14T06:03:19.380Z,7748
2017-08-14T06:04:19.382Z,8204
2017-08-14T06:05:19.332Z,8420
2017-08-14T06:06:19.393Z,8340
2017-08-14T06:07:19.398Z,8192
2017-08-14T06:08:19.112Z,12896
2017-08-14T06:09:19.399Z,5340
2017-08-14T06:10:19.405Z,6792
2017-08-14T06:11:19.433Z,6424
2017-08-14T06:12:18.550Z,6260
2017-08-14T06:13:19.426Z,6120
2017-08-14T06:14:19.135Z,6100
2017-08-14T06:15:19.398Z,6212
2017-08-14T06:16:19.136Z,6440
2017-08-14T06:17:19.434Z,6800
2017-08-14T06:18:19.436Z,7252
2017-08-14T06:19:19.470Z,7688
2017-08-14T06:20:19.735Z,8296
2017-08-14T06:21:19.480Z,9036
2017-08-14T06:22:19.454Z,9572
2017-08-14T06:23:19.156Z,10008
2017-08-14T06:24:19.470Z,10472
2017-08-14T06:25:20.126Z,10772
2017-08-14T06:26:19.482Z,10852
2017-08-14T06:27:19.491Z,12276
2017-08-14T06:28:19.482Z,10776
2017-08-14T06:29:19.494Z,10044
2017-08-14T06:30:19.764Z,11656
2017-08-14T06:31:19.498Z,12180
2017-08-14T06:32:19.211Z,12420
2017-08-14T06:33:19.765Z,12144
2017-08-14T06:34:19.240Z,10524
2017-08-14T06:35:19.207Z,8896
2017-08-14T06:36:19.219Z,10500
2017-08-14T06:37:19.553Z,10820
2017-08-14T06:38:19.544Z,10992
2017-08-14T06:39:19.253Z,10088
2017-08-14T06:40:19.815Z,10340
2017-08-14T06:41:19.577Z,11216
2017-08-14T06:42:19.574Z,11928
2017-08-14T06:43:19.577Z,12292
2017-08-14T06:44:19.584Z,11280
2017-08-14T06:45:19.876Z,10344
2017-08-14T06:46:19.590Z,10824
2017-08-14T06:47:19.301Z,11300
2017-08-14T06:48:22.710Z,11628
2017-08-14T06:49:19.304Z,11608
2017-08-14T06:50:19.479Z,11108
2017-08-14T06:51:19.625Z,11232
2017-08-14T06:52:19.622Z,11768
2017-08-14T06:53:19.643Z,11780
2017-08-14T06:54:19.650Z,12160
2017-08-14T06:55:19.919Z,12412
2017-08-14T06:56:19.356Z,12848
2017-08-14T06:57:19.683Z,12964
2017-08-14T06:58:19.672Z,9296
2017-08-14T06:59:19.674Z,13472
2017-08-14T07:00:19.926Z,13820
2017-08-14T07:01:19.688Z,13856
2017-08-14T07:02:19.396Z,13356
2017-08-14T07:03:19.961Z,13844
2017-08-14T07:04:19.422Z,8232
2017-08-14T07:05:19.778Z,6516
2017-08-14T07:06:19.730Z,6300
2017-08-14T07:07:19.733Z,9640
2017-08-14T07:08:19.439Z,9656
2017-08-14T07:09:19.744Z,11280
2017-08-14T07:10:19.481Z,12756
2017-08-14T07:11:19.761Z,13004
2017-08-14T07:12:19.772Z,10716
2017-08-14T07:13:19.481Z,13296
2017-08-14T07:14:19.792Z,13708
2017-08-14T07:15:20.012Z,13096
2017-08-14T07:16:19.494Z,11948
2017-08-14T07:17:19.799Z,11940
2017-08-14T07:18:19.255Z,11888
2017-08-14T07:19:19.516Z,11668
2017-08-14T07:20:19.828Z,10708
2017-08-14T07:21:19.827Z,10900
2017-08-14T07:22:19.831Z,12028
2017-08-14T07:23:22.251Z,12968
2017-08-14T07:24:19.851Z,11676
2017-08-14T07:25:20.127Z,9964
2017-08-14T07:26:19.858Z,10880
2017-08-14T07:27:19.564Z,11500
2017-08-14T07:28:19.874Z,12096
2017-08-14T07:29:19.595Z,10656
2017-08-14T07:30:19.659Z,7864
2017-08-14T07:31:19.899Z,8236
2017-08-14T07:32:19.905Z,11996
2017-08-14T07:33:19.614Z,12456
2017-08-14T07:34:20.112Z,12488
2017-08-14T07:35:19.625Z,12004
2017-08-14T07:36:19.933Z,11908
2017-08-14T07:37:19.661Z,12424
2017-08-14T07:38:19.649Z,11232
2017-08-14T07:39:19.655Z,12272
2017-08-14T07:40:19.752Z,12808
2017-08-14T07:41:19.671Z,11608
2017-08-14T07:42:19.673Z,11020
2017-08-14T07:43:19.986Z,10280
2017-08-14T07:44:19.987Z,10120
2017-08-14T07:45:19.993Z,10244
2017-08-14T07:46:19.993Z,10144
2017-08-14T07:47:20.025Z,10384
2017-08-14T07:48:19.713Z,10468
2017-08-14T07:49:20.019Z,10868
2017-08-14T07:50:20.029Z,11016
2017-08-14T07:51:20.040Z,12100
2017-08-14T07:52:19.427Z,12672
2017-08-14T07:53:20.053Z,12284
2017-08-14T07:54:19.747Z,13024
2017-08-14T07:55:20.058Z,12672
2017-08-14T07:56:19.756Z,12996
2017-08-14T07:57:19.767Z,13828
2017-08-14T07:58:19.765Z,12400
2017-08-14T07:59:19.780Z,12156
2017-08-14T08:00:20.168Z,11508
2017-08-14T08:01:19.797Z,11204
2017-08-14T08:02:19.492Z,11716
2017-08-14T08:03:19.801Z,12484
2017-08-14T08:04:25.119Z,12848
2017-08-14T08:05:20.118Z,12964
2017-08-14T08:06:19.827Z,12820
2017-08-14T08:07:20.137Z,13320
2017-08-14T08:08:20.159Z,13544
2017-08-14T08:09:19.855Z,13352
2017-08-14T08:10:20.159Z,13328
2017-08-14T08:11:20.164Z,13280
2017-08-14T08:12:19.891Z,13164
2017-08-14T08:13:20.187Z,13208
2017-08-14T08:14:19.883Z,13268
2017-08-14T08:15:19.930Z,13128
2017-08-14T08:16:20.206Z,12744
2017-08-14T08:17:20.247Z,12804
2017-08-14T08:18:19.924Z,13044
2017-08-14T08:19:20.227Z,12728
2017-08-14T08:20:20.233Z,12640
2017-08-14T08:21:20.243Z,12276
2017-08-14T08:22:20.256Z,12116
2017-08-14T08:23:19.969Z,12108
2017-08-14T08:24:20.289Z,12168
2017-08-14T08:25:20.277Z,11620
2017-08-14T08:26:19.990Z,12132
2017-08-14T08:27:20.300Z,12128
2017-08-14T08:28:20.006Z,11844
2017-08-14T08:29:20.317Z,11476
2017-08-14T08:30:20.023Z,11480
2017-08-14T08:31:20.343Z,11352
2017-08-14T08:32:20.339Z,10548
2017-08-14T08:33:20.059Z,10396
2017-08-14T08:34:20.567Z,9480
2017-08-14T08:35:19.763Z,9392
2017-08-14T08:36:19.770Z,8940
2017-08-14T08:37:20.393Z,8708
2017-08-14T08:38:20.398Z,8820
2017-08-14T08:39:19.797Z,9356
2017-08-14T08:40:20.411Z,9948
2017-08-14T08:41:20.118Z,10448
2017-08-14T08:42:20.139Z,9948
2017-08-14T08:43:20.436Z,10864
2017-08-14T08:44:20.153Z,10588
2017-08-14T08:45:20.470Z,10796
2017-08-14T08:46:20.162Z,10100
2017-08-14T08:47:20.476Z,10308
2017-08-14T08:48:20.183Z,9760
2017-08-14T08:49:20.496Z,9660
2017-08-14T08:50:20.510Z,10112
2017-08-14T08:51:20.219Z,10796
2017-08-14T08:52:20.532Z,11020
2017-08-14T08:53:19.928Z,11208
2017-08-14T08:54:20.235Z,11236
2017-08-14T08:55:20.236Z,10800
2017-08-14T08:56:20.543Z,11708
2017-08-14T08:57:20.577Z,11796
2017-08-14T08:58:20.563Z,11688
2017-08-14T08:59:20.581Z,12460
2017-08-14T09:00:20.298Z,11940
2017-08-14T09:01:20.599Z,12848
2017-08-14T09:02:20.599Z,12636
2017-08-14T09:03:20.308Z,8844
2017-08-14T09:04:21.710Z,11848
2017-08-14T09:05:20.655Z,12740
2017-08-14T09:06:20.625Z,12108
2017-08-14T09:07:20.332Z,12256
2017-08-14T09:08:20.351Z,12360
2017-08-14T09:09:20.362Z,11636
2017-08-14T09:10:20.057Z,11052
2017-08-14T09:11:20.666Z,12020
2017-08-14T09:12:20.665Z,12496
2017-08-14T09:13:20.068Z,10876
2017-08-14T09:14:20.373Z,12456
2017-08-14T09:15:20.397Z,12160
2017-08-14T09:16:20.098Z,10244
2017-08-14T09:17:20.701Z,8304
2017-08-14T09:18:20.413Z,11680
2017-08-14T09:19:20.710Z,12668
2017-08-14T09:20:20.716Z,11380
2017-08-14T09:21:20.127Z,12276
2017-08-14T09:22:20.435Z,12496
2017-08-14T09:23:20.733Z,13084
2017-08-14T09:24:20.742Z,10620
2017-08-14T09:25:20.449Z,13100
2017-08-14T09:26:20.758Z,13064
2017-08-14T09:27:20.767Z,13652
2017-08-14T09:28:20.464Z,12036
2017-08-14T09:29:20.778Z,11480
2017-08-14T09:30:20.683Z,11484
2017-08-14T09:31:20.786Z,10660
2017-08-14T09:32:20.790Z,12812
2017-08-14T09:33:20.802Z,13240
2017-08-14T09:34:22.404Z,13080
2017-08-14T09:35:21.204Z,13328
2017-08-14T09:36:20.228Z,13396
2017-08-14T09:37:20.521Z,13476
2017-08-14T09:38:20.834Z,9016
2017-08-14T09:39:20.847Z,10232
2017-08-14T09:40:20.467Z,9164
2017-08-14T09:41:20.851Z,11736
2017-08-14T09:42:20.856Z,10492
2017-08-14T09:43:20.555Z,8924
2017-08-14T09:44:20.873Z,13696
2017-08-14T09:45:20.811Z,13684
2017-08-14T09:46:20.878Z,8660
2017-08-14T09:47:20.907Z,8616
2017-08-14T09:48:20.593Z,9064
2017-08-14T09:49:20.912Z,10092
2017-08-14T09:50:21.293Z,9348
2017-08-14T09:51:20.616Z,10160
2017-08-14T09:52:20.931Z,10828
2017-08-14T09:53:20.932Z,9528
2017-08-14T09:54:20.631Z,10748
2017-08-14T09:55:21.058Z,14124
2017-08-14T09:56:20.340Z,12964
2017-08-14T09:57:20.949Z,13588
2017-08-14T09:58:20.350Z,13480
2017-08-14T09:59:20.978Z,13332
2017-08-14T10:00:20.844Z,13172
2017-08-14T10:01:20.664Z,12832
2017-08-14T10:02:20.972Z,12764
2017-08-14T10:03:20.384Z,12000
2017-08-14T10:04:20.723Z,11644
2017-08-14T10:05:22.118Z,11332
2017-08-14T10:06:21.036Z,11400
2017-08-14T10:07:21.016Z,11400
2017-08-14T10:08:20.721Z,9760
2017-08-14T10:09:21.032Z,7188
2017-08-14T10:10:20.913Z,7264
2017-08-14T10:11:20.840Z,7176
2017-08-14T10:12:21.038Z,8940
2017-08-14T10:13:20.742Z,7400
2017-08-14T10:14:21.052Z,7148
2017-08-14T10:15:21.534Z,9844
2017-08-14T10:16:20.769Z,10236
2017-08-14T10:17:21.083Z,10584
2017-08-14T10:18:21.089Z,10484
2017-08-14T10:19:20.780Z,10584
2017-08-14T10:20:21.223Z,10708
2017-08-14T10:21:21.108Z,10428
2017-08-14T10:22:21.108Z,8348
2017-08-14T10:23:20.804Z,7720
2017-08-14T10:24:20.523Z,9812
2017-08-14T10:25:21.229Z,9496
2017-08-14T10:26:20.840Z,7776
2017-08-14T10:27:20.863Z,10920
2017-08-14T10:28:21.152Z,10952
2017-08-14T10:29:21.156Z,10840
2017-08-14T10:30:21.377Z,10924
2017-08-14T10:31:20.884Z,10480
2017-08-14T10:32:20.564Z,10492
2017-08-14T10:33:20.864Z,10352
2017-08-14T10:34:20.865Z,10488
2017-08-14T10:35:21.356Z,10108
2017-08-14T10:36:21.188Z,9996
2017-08-14T10:37:20.892Z,10044
2017-08-14T10:38:21.192Z,10464
2017-08-14T10:39:20.897Z,10496
2017-08-14T10:40:21.547Z,10352
2017-08-14T10:41:20.918Z,10344
2017-08-14T10:42:20.914Z,10100
2017-08-14T10:43:21.223Z,9248
2017-08-14T10:44:21.227Z,9792
2017-08-14T10:45:21.806Z,9344
2017-08-14T10:46:21.254Z,8228
2017-08-14T10:47:20.947Z,9460
2017-08-14T10:48:20.650Z,8864
2017-08-14T10:49:21.273Z,9348
2017-08-14T10:50:21.688Z,9280
2017-08-14T10:51:21.279Z,9320
2017-08-14T10:52:21.287Z,9288
2017-08-14T10:53:20.993Z,9540
2017-08-14T10:54:21.044Z,9616
2017-08-14T10:55:21.699Z,9956
2017-08-14T10:56:21.306Z,10060
2017-08-14T10:57:21.313Z,10372
2017-08-14T10:58:21.020Z,10324
2017-08-14T10:59:20.717Z,10136
2017-08-14T11:00:21.754Z,10236
2017-08-14T11:01:21.369Z,9904
2017-08-14T11:02:21.347Z,8880
2017-08-14T11:03:21.062Z,8812
2017-08-14T11:04:21.088Z,9188
2017-08-14T11:05:21.603Z,9064
2017-08-14T11:06:21.424Z,8816
2017-08-14T11:07:21.427Z,8600
2017-08-14T11:08:21.383Z,8872
2017-08-14T11:09:21.389Z,8432
2017-08-14T11:10:21.659Z,8088
2017-08-14T11:11:21.098Z,7936
2017-08-14T11:12:20.799Z,7916
2017-08-14T11:13:20.818Z,8056
2017-08-14T11:14:21.439Z,8016
2017-08-14T11:15:21.241Z,8088
2017-08-14T11:16:20.849Z,7956
2017-08-14T11:17:20.872Z,8280
2017-08-14T11:18:21.471Z,8772
2017-08-14T11:19:20.849Z,8908
2017-08-14T11:20:21.473Z,8948
2017-08-14T11:21:21.179Z,8972
2017-08-14T11:22:21.490Z,8952
2017-08-14T11:23:21.492Z,9020
2017-08-14T11:24:21.489Z,9072
2017-08-14T11:25:21.485Z,9068
2017-08-14T11:26:21.492Z,9020
2017-08-14T11:27:21.210Z,8944
2017-08-14T11:28:21.533Z,8840
2017-08-14T11:29:21.544Z,8752
2017-08-14T11:30:21.572Z,8628
2017-08-14T11:31:21.535Z,8524
2017-08-14T11:32:21.563Z,8416
2017-08-14T11:33:21.583Z,8296
2017-08-14T11:34:21.253Z,8164
2017-08-14T11:35:22.134Z,8028
2017-08-14T11:36:21.293Z,7904
2017-08-14T11:37:21.250Z,7764
2017-08-14T11:38:21.580Z,7380
2017-08-14T11:39:21.299Z,7652
2017-08-14T11:40:22.337Z,7576
2017-08-14T11:41:21.595Z,7424
2017-08-14T11:42:21.611Z,7348
2017-08-14T11:43:21.592Z,7284
2017-08-14T11:44:21.045Z,7236
2017-08-14T11:45:21.683Z,7140
2017-08-14T11:46:21.617Z,7148
2017-08-14T11:47:21.337Z,7148
2017-08-14T11:48:21.332Z,7068
2017-08-14T11:49:21.699Z,6972
2017-08-14T11:50:21.730Z,6940
2017-08-14T11:51:21.338Z,6880
2017-08-14T11:52:21.647Z,6868
2017-08-14T11:53:21.667Z,6836
2017-08-14T11:54:21.677Z,6792
2017-08-14T11:55:22.195Z,6812
2017-08-14T11:56:21.089Z,6896
2017-08-14T11:57:21.674Z,6808
2017-08-14T11:58:21.700Z,7036
2017-08-14T11:59:21.698Z,7172
2017-08-14T12:00:21.711Z,7192
2017-08-14T12:01:21.398Z,7232
2017-08-14T12:02:21.400Z,7304
2017-08-14T12:03:21.727Z,6960
2017-08-14T12:04:21.716Z,7084
2017-08-14T12:05:22.230Z,7320
2017-08-14T12:06:21.419Z,7368
2017-08-14T12:07:21.157Z,7456
2017-08-14T12:08:21.749Z,7352
2017-08-14T12:09:21.141Z,6948
2017-08-14T12:10:21.702Z,6424
2017-08-14T12:11:21.763Z,7680
2017-08-14T12:12:21.766Z,7508
2017-08-14T12:13:21.488Z,7812
2017-08-14T12:14:21.781Z,7752
2017-08-14T12:15:21.648Z,7836
2017-08-14T12:16:21.781Z,7844
2017-08-14T12:17:21.821Z,7776
2017-08-14T12:18:21.794Z,7668
2017-08-14T12:19:21.799Z,7496
2017-08-14T12:20:25.170Z,7304
2017-08-14T12:21:21.855Z,7240
2017-08-14T12:22:21.823Z,7220
2017-08-14T12:23:21.575Z,7208
2017-08-14T12:24:21.531Z,7272
2017-08-14T12:25:22.092Z,7332
2017-08-14T12:26:21.540Z,7384
2017-08-14T12:27:21.573Z,7332
2017-08-14T12:28:21.575Z,7260
2017-08-14T12:29:21.870Z,7180
2017-08-14T12:30:22.193Z,7204
2017-08-14T12:31:21.915Z,7132
2017-08-14T12:32:21.903Z,7124
2017-08-14T12:33:21.317Z,6956
2017-08-14T12:34:21.908Z,6780
2017-08-14T12:35:21.785Z,6748
2017-08-14T12:36:21.986Z,6744
2017-08-14T12:37:21.915Z,6764
2017-08-14T12:38:21.919Z,6716
2017-08-14T12:39:21.932Z,6784
2017-08-14T12:40:21.685Z,6744
2017-08-14T12:41:21.959Z,6892
2017-08-14T12:42:21.637Z,6992
2017-08-14T12:43:21.360Z,7100
2017-08-14T12:44:21.672Z,6612
2017-08-14T12:45:22.235Z,7196
2017-08-14T12:46:21.970Z,7332
2017-08-14T12:47:21.982Z,7596
2017-08-14T12:48:21.678Z,6388
2017-08-14T12:49:21.684Z,6396
2017-08-14T12:50:22.180Z,6964
2017-08-14T12:51:22.744Z,7208
2017-08-14T12:52:21.409Z,6852
2017-08-14T12:53:22.010Z,8196
2017-08-14T12:54:21.744Z,8580
2017-08-14T12:55:22.300Z,8812
2017-08-14T12:56:21.742Z,8896
2017-08-14T12:57:21.746Z,8828
2017-08-14T12:58:21.766Z,8088
2017-08-14T12:59:21.445Z,8856
2017-08-14T13:00:22.331Z,8720
2017-08-14T13:01:22.051Z,7164
2017-08-14T13:02:22.082Z,8748
2017-08-14T13:03:21.770Z,8700
2017-08-14T13:04:22.079Z,8412
2017-08-14T13:05:22.302Z,8304
2017-08-14T13:06:22.092Z,8116
2017-08-14T13:07:22.096Z,7916
2017-08-14T13:08:21.893Z,7672
2017-08-14T13:09:22.115Z,7596
2017-08-14T13:10:22.467Z,7664
2017-08-14T13:11:21.815Z,7832
2017-08-14T13:12:21.833Z,8032
2017-08-14T13:13:21.840Z,6548
2017-08-14T13:14:21.839Z,6600
2017-08-14T13:15:22.333Z,6636
2017-08-14T13:16:21.862Z,6580
2017-08-14T13:17:22.176Z,6656
2017-08-14T13:18:22.171Z,6228
2017-08-14T13:19:21.876Z,6540
2017-08-14T13:20:21.929Z,7356
2017-08-14T13:21:22.185Z,7224
2017-08-14T13:22:22.208Z,6992
2017-08-14T13:23:21.904Z,6760
2017-08-14T13:24:21.969Z,6584
2017-08-14T13:25:22.552Z,5728
2017-08-14T13:26:21.618Z,4900
2017-08-14T13:27:22.230Z,4932
2017-08-14T13:28:22.234Z,6240
2017-08-14T13:29:21.938Z,6288
2017-08-14T13:30:22.005Z,6356
2017-08-14T13:31:21.947Z,6432
2017-08-14T13:32:21.949Z,6440
2017-08-14T13:33:21.955Z,6360
2017-08-14T13:34:21.957Z,4864
2017-08-14T13:35:22.389Z,4672
2017-08-14T13:36:21.973Z,4552